createdAt,value
2022-09-20T00:00:06.271Z,957.08
2022-09-20T00:01:06.299Z,957.12
2022-09-20T00:02:06.222Z,957.15
2022-09-20T00:03:06.194Z,957.17
2022-09-20T00:04:06.409Z,957.15
2022-09-20T00:05:06.304Z,957.15
2022-09-20T00:06:06.159Z,957.12
2022-09-20T00:07:06.149Z,957.14
2022-09-20T00:08:06.157Z,957.17
2022-09-20T00:09:06.139Z,957.21
2022-09-20T00:10:06.116Z,957.16
2022-09-20T00:11:06.123Z,957.12
2022-09-20T00:12:06.120Z,957.12
2022-09-20T00:13:06.065Z,957.05
2022-09-20T00:14:06.089Z,957.01
2022-09-20T00:15:06.045Z,957.00
2022-09-20T00:16:06.070Z,957.00
2022-09-20T00:17:06.146Z,956.98
2022-09-20T00:18:06.001Z,957.00
2022-09-20T00:19:06.212Z,957.03
2022-09-20T00:20:05.971Z,957.07
2022-09-20T00:21:05.959Z,957.10
2022-09-20T00:22:05.970Z,957.10
2022-09-20T00:23:05.942Z,957.16
2022-09-20T00:24:06.125Z,957.18
2022-09-20T00:25:05.897Z,957.17
2022-09-20T00:26:05.900Z,957.21
2022-09-20T00:27:05.910Z,957.20
2022-09-20T00:28:05.869Z,957.22
2022-09-20T00:29:05.853Z,957.21
2022-09-20T00:30:05.860Z,957.21
2022-09-20T00:31:05.823Z,957.19
2022-09-20T00:32:05.887Z,957.24
2022-09-20T00:33:05.797Z,957.25
2022-09-20T00:34:05.888Z,957.15
2022-09-20T00:35:05.769Z,957.17
2022-09-20T00:36:05.904Z,957.11
2022-09-20T00:37:05.742Z,957.14
2022-09-20T00:38:05.747Z,957.17
2022-09-20T00:39:05.736Z,957.23
2022-09-20T00:40:05.744Z,957.28
2022-09-20T00:41:05.685Z,957.27
2022-09-20T00:42:05.675Z,957.28
2022-09-20T00:43:05.659Z,957.25
2022-09-20T00:44:05.657Z,957.25
2022-09-20T00:45:05.662Z,957.20
2022-09-20T00:46:05.690Z,957.17
2022-09-20T00:47:05.613Z,957.05
2022-09-20T00:48:05.598Z,957.09
2022-09-20T00:49:05.759Z,957.05
2022-09-20T00:50:05.568Z,957.08
2022-09-20T00:51:05.552Z,957.07
2022-09-20T00:52:05.543Z,957.03
2022-09-20T00:53:05.564Z,957.09
2022-09-20T00:54:05.544Z,957.10
2022-09-20T00:55:05.596Z,957.07
2022-09-20T00:56:05.489Z,957.05
2022-09-20T00:57:05.567Z,957.05
2022-09-20T00:58:05.458Z,957.03
2022-09-20T00:59:05.448Z,957.03
2022-09-20T01:00:05.467Z,956.99
2022-09-20T01:01:05.467Z,957.00
2022-09-20T01:02:05.481Z,957.01
2022-09-20T01:03:05.391Z,956.98
2022-09-20T01:04:05.581Z,956.95
2022-09-20T01:05:05.390Z,956.98
2022-09-20T01:06:05.358Z,957.00
2022-09-20T01:07:05.367Z,957.04
2022-09-20T01:08:05.344Z,957.00
2022-09-20T01:09:05.308Z,957.02
2022-09-20T01:10:05.293Z,956.97
2022-09-20T01:11:05.321Z,956.97
2022-09-20T01:12:05.277Z,956.93
2022-09-20T01:13:05.252Z,956.95
2022-09-20T01:14:05.256Z,956.94
2022-09-20T01:15:05.227Z,956.92
2022-09-20T01:16:05.286Z,956.94
2022-09-20T01:17:05.240Z,956.91
2022-09-20T01:18:05.190Z,956.85
2022-09-20T01:19:05.327Z,956.88
2022-09-20T01:20:05.198Z,956.83
2022-09-20T01:21:05.186Z,956.84
2022-09-20T01:22:05.161Z,956.82
2022-09-20T01:23:05.120Z,956.79
2022-09-20T01:24:05.109Z,956.81
2022-09-20T01:25:05.104Z,956.80
2022-09-20T01:26:05.076Z,956.81
2022-09-20T01:27:05.104Z,956.73
2022-09-20T01:28:05.060Z,956.79
2022-09-20T01:29:05.043Z,956.76
2022-09-20T01:30:05.031Z,956.77
2022-09-20T01:31:05.045Z,956.75
2022-09-20T01:32:05.070Z,956.78
2022-09-20T01:33:04.991Z,956.80
2022-09-20T01:34:05.115Z,956.79
2022-09-20T01:35:05.004Z,956.79
2022-09-20T01:36:04.947Z,956.79
2022-09-20T01:37:04.943Z,956.80
2022-09-20T01:38:04.918Z,956.84
2022-09-20T01:39:04.925Z,956.85
2022-09-20T01:40:05.006Z,956.81
2022-09-20T01:41:04.882Z,956.76
2022-09-20T01:42:04.907Z,956.81
2022-09-20T01:43:04.853Z,956.73
2022-09-20T01:44:04.848Z,956.75
2022-09-20T01:45:04.837Z,956.75
2022-09-20T01:46:04.860Z,956.69
2022-09-20T01:47:04.817Z,956.68
2022-09-20T01:48:04.804Z,956.70
2022-09-20T01:49:04.772Z,956.72
2022-09-20T01:50:04.799Z,956.70
2022-09-20T01:51:04.762Z,956.73
2022-09-20T01:52:04.743Z,956.74
2022-09-20T01:53:04.792Z,956.73
2022-09-20T01:54:04.710Z,956.73
2022-09-20T01:55:04.697Z,956.79
2022-09-20T01:56:04.730Z,956.78
2022-09-20T01:57:04.718Z,956.77
2022-09-20T01:58:04.683Z,956.76
2022-09-20T01:59:23.057Z,956.73
2022-09-20T02:00:04.639Z,956.71
2022-09-20T02:01:04.711Z,956.69
2022-09-20T02:02:04.634Z,956.68
2022-09-20T02:03:04.612Z,956.67
2022-09-20T02:04:04.574Z,956.65
2022-09-20T02:05:04.563Z,956.70
2022-09-20T02:06:04.573Z,956.67
2022-09-20T02:07:04.539Z,956.67
2022-09-20T02:08:04.577Z,956.68
2022-09-20T02:09:04.542Z,956.66
2022-09-20T02:10:04.514Z,956.65
2022-09-20T02:11:04.482Z,956.65
2022-09-20T02:12:04.468Z,956.66
2022-09-20T02:13:04.533Z,956.71
2022-09-20T02:14:04.502Z,956.71
2022-09-20T02:15:04.428Z,956.65
2022-09-20T02:16:04.489Z,956.66
2022-09-20T02:17:04.429Z,956.68
2022-09-20T02:18:04.382Z,956.65
2022-09-20T02:19:04.376Z,956.68
2022-09-20T02:20:04.368Z,956.66
2022-09-20T02:21:04.373Z,956.70
2022-09-20T02:22:04.336Z,956.63
2022-09-20T02:23:04.389Z,956.64
2022-09-20T02:24:04.328Z,956.64
2022-09-20T02:25:04.301Z,956.63
2022-09-20T02:26:04.281Z,956.61
2022-09-20T02:27:04.267Z,956.63
2022-09-20T02:28:04.314Z,956.63
2022-09-20T02:29:04.260Z,956.65
2022-09-20T02:30:04.230Z,956.66
2022-09-20T02:31:04.212Z,956.66
2022-09-20T02:32:04.304Z,956.60
2022-09-20T02:33:04.190Z,956.55
2022-09-20T02:34:04.167Z,956.60
2022-09-20T02:35:04.177Z,956.56
2022-09-20T02:36:04.162Z,956.58
2022-09-20T02:37:04.173Z,956.58
2022-09-20T02:38:04.117Z,956.55
2022-09-20T02:39:04.136Z,956.56
2022-09-20T02:40:04.167Z,956.57
2022-09-20T02:41:04.113Z,956.57
2022-09-20T02:42:04.061Z,956.53
2022-09-20T02:43:04.048Z,956.57
2022-09-20T02:44:04.073Z,956.58
2022-09-20T02:45:04.021Z,956.60
2022-09-20T02:46:04.089Z,956.56
2022-09-20T02:47:04.028Z,956.58
2022-09-20T02:48:04.013Z,956.54
2022-09-20T02:49:04.001Z,956.56
2022-09-20T02:50:03.959Z,956.57
2022-09-20T02:51:03.941Z,956.57
2022-09-20T02:52:03.957Z,956.58
2022-09-20T02:53:03.939Z,956.59
2022-09-20T02:54:03.909Z,956.57
2022-09-20T02:55:03.920Z,956.57
2022-09-20T02:56:03.908Z,956.55
2022-09-20T02:57:03.862Z,956.55
2022-09-20T02:58:03.948Z,956.55
2022-09-20T02:59:03.855Z,956.56
2022-09-20T03:00:03.844Z,956.53
2022-09-20T03:01:03.882Z,956.56
2022-09-20T03:02:03.900Z,956.58
2022-09-20T03:03:03.784Z,956.57
2022-09-20T03:04:03.810Z,956.58
2022-09-20T03:05:03.761Z,956.58
2022-09-20T03:06:03.742Z,956.59
2022-09-20T03:07:03.757Z,956.65
2022-09-20T03:08:03.712Z,956.59
2022-09-20T03:09:03.706Z,956.63
2022-09-20T03:10:03.691Z,956.61
2022-09-20T03:11:03.732Z,956.62
2022-09-20T03:12:03.708Z,956.58
2022-09-20T03:13:03.684Z,956.59
2022-09-20T03:14:03.640Z,956.57
2022-09-20T03:15:03.661Z,956.54
2022-09-20T03:16:03.656Z,956.56
2022-09-20T03:17:03.732Z,956.52
2022-09-20T03:18:03.582Z,956.52
2022-09-20T03:19:03.571Z,956.52
2022-09-20T03:20:03.553Z,956.51
2022-09-20T03:21:03.538Z,956.51
2022-09-20T03:22:03.538Z,956.52
2022-09-20T03:23:03.532Z,956.53
2022-09-20T03:24:03.525Z,956.48
2022-09-20T03:25:03.498Z,956.47
2022-09-20T03:26:03.466Z,956.51
2022-09-20T03:27:03.501Z,956.48
2022-09-20T03:28:03.443Z,956.55
2022-09-20T03:29:03.436Z,956.54
2022-09-20T03:30:03.425Z,956.52
2022-09-20T03:31:03.457Z,956.50
2022-09-20T03:32:03.491Z,956.55
2022-09-20T03:33:03.411Z,956.56
2022-09-20T03:34:03.369Z,956.55
2022-09-20T03:35:03.385Z,956.58
2022-09-20T03:36:03.337Z,956.61
2022-09-20T03:37:03.325Z,956.60
2022-09-20T03:38:03.347Z,956.68
2022-09-20T03:39:03.326Z,956.71
2022-09-20T03:40:03.330Z,956.77
2022-09-20T03:41:03.279Z,956.84
2022-09-20T03:42:03.260Z,956.89
2022-09-20T03:43:03.248Z,956.96
2022-09-20T03:44:03.252Z,957.05
2022-09-20T03:45:03.218Z,957.10
2022-09-20T03:46:03.293Z,957.20
2022-09-20T03:47:03.193Z,957.20
2022-09-20T03:48:03.210Z,957.22
2022-09-20T03:49:03.168Z,957.14
2022-09-20T03:50:03.182Z,957.10
2022-09-20T03:51:03.139Z,957.02
2022-09-20T03:52:03.120Z,956.92
2022-09-20T03:53:03.120Z,956.83
2022-09-20T03:54:03.128Z,956.81
2022-09-20T03:55:03.096Z,956.84
2022-09-20T03:56:03.064Z,956.87
2022-09-20T03:57:03.065Z,956.86
2022-09-20T03:58:06.803Z,956.85
2022-09-20T03:59:03.045Z,956.84
2022-09-20T04:00:03.045Z,956.82
2022-09-20T04:01:03.058Z,956.81
2022-09-20T04:02:03.051Z,956.81
2022-09-20T04:03:02.983Z,956.77
2022-09-20T04:04:02.966Z,956.82
2022-09-20T04:05:02.982Z,956.82
2022-09-20T04:06:02.940Z,956.79
2022-09-20T04:07:02.925Z,956.78
2022-09-20T04:08:02.935Z,956.76
2022-09-20T04:09:02.923Z,956.79
2022-09-20T04:10:02.889Z,956.79
2022-09-20T04:11:02.921Z,956.84
2022-09-20T04:12:02.944Z,956.83
2022-09-20T04:13:02.846Z,956.79
2022-09-20T04:14:02.835Z,956.83
2022-09-20T04:15:02.855Z,956.80
2022-09-20T04:16:02.798Z,956.77
2022-09-20T04:17:02.933Z,956.77
2022-09-20T04:18:02.806Z,956.82
2022-09-20T04:19:03.091Z,956.78
2022-09-20T04:20:02.760Z,956.80
2022-09-20T04:21:02.755Z,956.81
2022-09-20T04:22:02.722Z,956.87
2022-09-20T04:23:02.768Z,956.88
2022-09-20T04:24:02.693Z,956.90
2022-09-20T04:25:02.686Z,956.92
2022-09-20T04:26:02.661Z,956.93
2022-09-20T04:27:02.664Z,956.95
2022-09-20T04:28:02.666Z,956.98
2022-09-20T04:29:02.650Z,956.94
2022-09-20T04:30:02.610Z,956.92
2022-09-20T04:31:02.601Z,956.90
2022-09-20T04:32:02.706Z,956.90
2022-09-20T04:33:02.585Z,956.93
2022-09-20T04:34:02.583Z,956.89
2022-09-20T04:35:02.566Z,956.92
2022-09-20T04:36:02.541Z,956.88
2022-09-20T04:37:02.522Z,956.91
2022-09-20T04:38:02.505Z,956.87
2022-09-20T04:39:02.536Z,956.89
2022-09-20T04:40:02.611Z,956.88
2022-09-20T04:41:02.518Z,956.88
2022-09-20T04:42:02.456Z,956.88
2022-09-20T04:43:02.449Z,956.91
2022-09-20T04:44:02.445Z,956.96
2022-09-20T04:45:02.415Z,956.93
2022-09-20T04:46:02.490Z,956.94
2022-09-20T04:47:02.388Z,956.93
2022-09-20T04:48:02.395Z,956.91
2022-09-20T04:49:02.365Z,956.94
2022-09-20T04:50:02.404Z,956.93
2022-09-20T04:51:02.402Z,956.94
2022-09-20T04:52:02.338Z,956.91
2022-09-20T04:53:02.326Z,956.91
2022-09-20T04:54:02.312Z,956.91
2022-09-20T04:55:02.321Z,956.93
2022-09-20T04:56:02.262Z,956.94
2022-09-20T04:57:02.266Z,956.96
2022-09-20T04:58:02.256Z,956.95
2022-09-20T04:59:02.267Z,956.98
2022-09-20T05:00:02.229Z,956.96
2022-09-20T05:01:02.238Z,956.98
2022-09-20T05:02:02.327Z,956.96
2022-09-20T05:03:02.212Z,956.95
2022-09-20T05:04:02.183Z,956.99
2022-09-20T05:05:02.150Z,956.90
2022-09-20T05:06:02.175Z,956.94
2022-09-20T05:07:02.127Z,956.94
2022-09-20T05:08:02.107Z,956.96
2022-09-20T05:09:02.329Z,956.97
2022-09-20T05:10:02.087Z,956.95
2022-09-20T05:11:02.072Z,957.01
2022-09-20T05:12:02.079Z,956.98
2022-09-20T05:13:02.043Z,956.96
2022-09-20T05:14:02.051Z,956.98
2022-09-20T05:15:02.015Z,956.96
2022-09-20T05:16:02.003Z,956.98
2022-09-20T05:17:02.122Z,957.00
2022-09-20T05:18:01.971Z,957.00
2022-09-20T05:19:01.966Z,956.95
2022-09-20T05:20:02.046Z,956.98
2022-09-20T05:21:01.927Z,956.95
2022-09-20T05:22:01.927Z,956.95
2022-09-20T05:23:02.027Z,956.94
2022-09-20T05:24:01.914Z,956.98
2022-09-20T05:25:01.909Z,956.98
2022-09-20T05:26:01.891Z,956.98
2022-09-20T05:27:01.861Z,956.99
2022-09-20T05:28:01.863Z,957.06
2022-09-20T05:29:01.833Z,957.08
2022-09-20T05:30:04.959Z,957.06
2022-09-20T05:31:01.803Z,957.09
2022-09-20T05:32:01.891Z,957.09
2022-09-20T05:33:01.782Z,957.08
2022-09-20T05:34:01.761Z,957.07
2022-09-20T05:35:01.774Z,957.09
2022-09-20T05:36:01.734Z,957.12
2022-09-20T05:37:01.717Z,957.13
2022-09-20T05:38:01.711Z,957.05
2022-09-20T05:39:03.494Z,957.10
2022-09-20T05:40:01.746Z,957.02
2022-09-20T05:41:01.694Z,957.05
2022-09-20T05:42:01.673Z,957.04
2022-09-20T05:43:01.640Z,957.09
2022-09-20T05:44:01.621Z,957.09
2022-09-20T05:45:01.608Z,957.09
2022-09-20T05:46:01.671Z,957.08
2022-09-20T05:47:01.591Z,957.11
2022-09-20T05:48:01.577Z,957.11
2022-09-20T05:49:01.581Z,957.12
2022-09-20T05:50:01.557Z,957.09
2022-09-20T05:51:03.704Z,957.14
2022-09-20T05:52:01.552Z,957.12
2022-09-20T05:53:01.503Z,957.14
2022-09-20T05:54:01.522Z,957.16
2022-09-20T05:55:01.475Z,957.14
2022-09-20T05:56:01.458Z,957.19
2022-09-20T05:57:01.443Z,957.19
2022-09-20T05:58:01.445Z,957.19
2022-09-20T05:59:01.449Z,957.19
2022-09-20T06:00:01.419Z,957.21
2022-09-20T06:01:01.434Z,957.23
2022-09-20T06:02:01.444Z,957.23
2022-09-20T06:03:01.381Z,957.24
2022-09-20T06:04:01.353Z,957.26
2022-09-20T06:05:01.371Z,957.23
2022-09-20T06:06:01.323Z,957.26
2022-09-20T06:07:01.312Z,957.25
2022-09-20T06:08:01.304Z,957.21
2022-09-20T06:09:01.311Z,957.26
2022-09-20T06:10:01.280Z,957.30
2022-09-20T06:11:01.265Z,957.33
2022-09-20T06:12:01.241Z,957.27
2022-09-20T06:13:01.244Z,957.33
2022-09-20T06:14:01.256Z,957.24
2022-09-20T06:15:01.227Z,957.24
2022-09-20T06:16:01.219Z,957.24
2022-09-20T06:17:01.181Z,957.22
2022-09-20T06:18:01.168Z,957.24
2022-09-20T06:19:01.149Z,957.25
2022-09-20T06:20:01.163Z,957.24
2022-09-20T06:21:01.125Z,957.19
2022-09-20T06:22:03.732Z,957.20
2022-09-20T06:23:01.095Z,957.21
2022-09-20T06:24:01.086Z,957.14
2022-09-20T06:25:01.128Z,957.15
2022-09-20T06:26:01.068Z,957.12
2022-09-20T06:27:01.037Z,957.15
2022-09-20T06:28:01.048Z,957.19
2022-09-20T06:29:01.057Z,957.18
2022-09-20T06:30:01.019Z,957.22
2022-09-20T06:31:01.049Z,957.22
2022-09-20T06:32:01.013Z,957.22
2022-09-20T06:33:00.976Z,957.25
2022-09-20T06:34:00.966Z,957.24
2022-09-20T06:35:00.966Z,957.28
2022-09-20T06:36:00.957Z,957.31
2022-09-20T06:37:00.914Z,957.27
2022-09-20T06:38:00.897Z,957.26
2022-09-20T06:39:00.883Z,957.28
2022-09-20T06:40:01.005Z,957.31
2022-09-20T06:41:00.862Z,957.27
2022-09-20T06:42:00.848Z,957.27
2022-09-20T06:43:00.845Z,957.29
2022-09-20T06:44:00.821Z,957.27
2022-09-20T06:45:00.830Z,957.31
2022-09-20T06:46:00.823Z,957.30
2022-09-20T06:47:02.790Z,957.32
2022-09-20T06:48:00.768Z,957.32
2022-09-20T06:49:00.747Z,957.33
2022-09-20T06:50:00.740Z,957.29
2022-09-20T06:51:00.742Z,957.29
2022-09-20T06:52:00.742Z,957.25
2022-09-20T06:53:00.699Z,957.29
2022-09-20T06:54:00.689Z,957.30
2022-09-20T06:55:00.670Z,957.28
2022-09-20T06:56:00.655Z,957.33
2022-09-20T06:57:00.669Z,957.30
2022-09-20T06:58:00.652Z,957.29
2022-09-20T06:59:00.614Z,957.31
2022-09-20T07:00:00.607Z,957.35
2022-09-20T07:01:00.658Z,957.32
2022-09-20T07:02:00.648Z,957.34
2022-09-20T07:03:00.553Z,957.37
2022-09-20T07:04:00.553Z,957.36
2022-09-20T07:05:00.538Z,957.38
2022-09-20T07:06:00.547Z,957.35
2022-09-20T07:07:00.508Z,957.35
2022-09-20T07:08:00.499Z,957.37
2022-09-20T07:09:00.500Z,957.38
2022-09-20T07:10:00.472Z,957.40
2022-09-20T07:11:00.475Z,957.34
2022-09-20T07:12:00.449Z,957.34
2022-09-20T07:13:00.441Z,957.31
2022-09-20T07:14:00.413Z,957.33
2022-09-20T07:15:00.403Z,957.31
2022-09-20T07:16:00.409Z,957.30
2022-09-20T07:17:00.397Z,957.29
2022-09-20T07:18:00.362Z,957.31
2022-09-20T07:19:00.343Z,957.31
2022-09-20T07:20:00.372Z,957.35
2022-09-20T07:21:00.309Z,957.34
2022-09-20T07:22:00.384Z,957.33
2022-09-20T07:23:00.330Z,957.36
2022-09-20T07:24:00.278Z,957.35
2022-09-20T07:25:00.261Z,957.40
2022-09-20T07:26:00.255Z,957.38
2022-09-20T07:27:00.262Z,957.35
2022-09-20T07:28:00.217Z,957.34
2022-09-20T07:29:00.207Z,957.31
2022-09-20T07:30:00.234Z,957.36
2022-09-20T07:31:00.181Z,957.35
2022-09-20T07:32:00.287Z,957.35
2022-09-20T07:33:00.183Z,957.41
2022-09-20T07:34:00.156Z,957.41
2022-09-20T07:35:00.140Z,957.40
2022-09-20T07:36:00.116Z,957.40
2022-09-20T07:37:00.122Z,957.40
2022-09-20T07:38:00.129Z,957.38
2022-09-20T07:39:00.083Z,957.36
2022-09-20T07:40:00.191Z,957.42
2022-09-20T07:41:00.058Z,957.44
2022-09-20T07:42:00.037Z,957.44
2022-09-20T07:43:00.071Z,957.41
2022-09-20T07:44:00.009Z,957.42
2022-09-20T07:45:00.003Z,957.46
2022-09-20T07:46:00.057Z,957.38
2022-09-20T07:46:59.980Z,957.41
2022-09-20T07:47:59.994Z,957.41
2022-09-20T07:48:59.938Z,957.42
2022-09-20T07:49:59.962Z,957.43
2022-09-20T07:50:59.940Z,957.42
2022-09-20T07:51:59.907Z,957.41
2022-09-20T07:52:59.935Z,957.44
2022-09-20T07:53:59.871Z,957.39
2022-09-20T07:54:59.886Z,957.41
2022-09-20T07:55:59.846Z,957.46
2022-09-20T07:56:59.840Z,957.49
2022-09-20T07:57:59.827Z,957.53
2022-09-20T07:58:59.839Z,957.51
2022-09-20T07:59:59.882Z,957.50
2022-09-20T08:00:59.838Z,957.50
2022-09-20T08:01:59.804Z,957.54
2022-09-20T08:02:59.778Z,957.50
2022-09-20T08:03:59.735Z,957.50
2022-09-20T08:04:59.762Z,957.45
2022-09-20T08:05:59.730Z,957.50
2022-09-20T08:06:59.701Z,957.50
2022-09-20T08:07:59.692Z,957.50
2022-09-20T08:08:59.677Z,957.56
2022-09-20T08:09:59.697Z,957.53
2022-09-20T08:10:59.690Z,957.56
2022-09-20T08:11:59.766Z,957.57
2022-09-20T08:14:08.078Z,957.61
2022-09-20T08:14:59.621Z,957.62
2022-09-20T08:15:59.584Z,957.61
2022-09-20T08:16:59.590Z,957.59
2022-09-20T08:17:59.563Z,957.58
2022-09-20T08:18:59.530Z,957.57
2022-09-20T08:19:59.557Z,957.59
2022-09-20T08:20:59.537Z,957.58
2022-09-20T08:21:59.533Z,957.57
2022-09-20T08:23:22.065Z,957.62
2022-09-20T08:23:59.484Z,957.61
2022-09-20T08:24:59.465Z,957.59
2022-09-20T08:25:59.446Z,957.56
2022-09-20T08:26:59.471Z,957.60
2022-09-20T08:27:59.424Z,957.56
2022-09-20T08:28:59.412Z,957.54
2022-09-20T08:29:59.422Z,957.59
2022-09-20T08:30:59.379Z,957.52
2022-09-20T08:31:59.377Z,957.53
2022-09-20T08:32:59.387Z,957.53
2022-09-20T08:33:59.348Z,957.59
2022-09-20T08:34:59.340Z,957.57
2022-09-20T08:35:59.311Z,957.57
2022-09-20T08:36:59.309Z,957.55
2022-09-20T08:39:57.235Z,957.56
2022-09-20T08:40:02.695Z,957.59
2022-09-20T08:40:07.630Z,957.55
2022-09-20T08:41:07.579Z,957.57
2022-09-20T08:42:07.558Z,957.59
2022-09-20T08:43:07.553Z,957.59
2022-09-20T08:44:07.552Z,957.54
2022-09-20T08:45:07.518Z,957.56
2022-09-20T08:46:07.538Z,957.53
2022-09-20T08:47:07.519Z,957.51
2022-09-20T08:48:07.495Z,957.54
2022-09-20T08:49:11.001Z,957.55
2022-09-20T08:50:11.558Z,957.59
2022-09-20T08:51:07.433Z,957.60
2022-09-20T08:52:10.362Z,957.60
2022-09-20T08:53:07.406Z,957.60
2022-09-20T08:54:07.408Z,957.61
2022-09-20T08:55:07.923Z,957.61
2022-09-20T08:56:07.379Z,957.59
2022-09-20T08:57:07.360Z,957.60
2022-09-20T08:58:08.997Z,957.59
2022-09-20T08:59:07.394Z,957.58
2022-09-20T09:00:07.323Z,957.57
2022-09-20T09:01:07.455Z,957.57
2022-09-20T09:02:07.332Z,957.58
2022-09-20T09:03:07.322Z,957.61
2022-09-20T09:04:07.340Z,957.59
2022-09-20T09:05:07.253Z,957.61
2022-09-20T09:06:11.740Z,957.60
2022-09-20T09:07:07.237Z,957.57
2022-09-20T09:08:07.244Z,957.60
2022-09-20T09:09:07.193Z,957.59
2022-09-20T09:10:07.199Z,957.61
2022-09-20T09:11:07.194Z,957.63
2022-09-20T09:12:07.164Z,957.68
2022-09-20T09:13:07.146Z,957.71
2022-09-20T09:14:07.162Z,957.66
2022-09-20T09:15:07.125Z,957.63
2022-09-20T09:16:07.153Z,957.61
2022-09-20T09:17:07.130Z,957.60
2022-09-20T09:18:07.079Z,957.61
2022-09-20T09:19:07.096Z,957.61
2022-09-20T09:20:07.053Z,957.63
2022-09-20T09:21:07.058Z,957.65
2022-09-20T09:22:07.030Z,957.52
2022-09-20T09:23:07.000Z,957.51
2022-09-20T09:24:07.008Z,957.49
2022-09-20T09:25:07.031Z,957.47
2022-09-20T09:26:06.972Z,957.49
2022-09-20T09:27:06.986Z,957.48
2022-09-20T09:28:06.958Z,957.45
2022-09-20T09:29:06.924Z,957.49
2022-09-20T09:30:06.951Z,957.51
2022-09-20T09:31:06.937Z,957.48
2022-09-20T09:32:06.917Z,957.55
2022-09-20T09:33:06.878Z,957.48
2022-09-20T09:34:06.904Z,957.56
2022-09-20T09:35:06.910Z,957.50
2022-09-20T09:36:06.865Z,957.53
2022-09-20T09:37:06.830Z,957.61
2022-09-20T09:38:06.820Z,957.63
2022-09-20T09:39:06.803Z,957.63
2022-09-20T09:40:06.826Z,957.67
2022-09-20T09:41:06.801Z,957.69
2022-09-20T09:42:06.762Z,957.69
2022-09-20T09:43:06.752Z,957.69
2022-09-20T09:44:06.755Z,957.69
2022-09-20T09:45:06.737Z,957.68
2022-09-20T09:46:06.803Z,957.71
2022-09-20T09:47:06.712Z,957.75
2022-09-20T09:48:06.676Z,957.76
2022-09-20T09:49:09.844Z,957.80
2022-09-20T09:50:09.833Z,957.78
2022-09-20T09:51:06.645Z,957.73
2022-09-20T09:52:06.674Z,957.79
2022-09-20T09:53:06.647Z,957.78
2022-09-20T09:54:06.624Z,957.82
2022-09-20T09:55:06.611Z,957.85
2022-09-20T09:56:09.777Z,957.87
2022-09-20T09:57:06.566Z,957.93
2022-09-20T09:58:06.542Z,957.92
2022-09-20T09:59:06.537Z,957.91
2022-09-20T10:00:13.520Z,957.93
2022-09-20T10:01:06.534Z,957.94
2022-09-20T10:02:06.631Z,957.95
2022-09-20T10:03:06.484Z,957.96
2022-09-20T10:04:06.689Z,957.94
2022-09-20T10:05:06.498Z,957.93
2022-09-20T10:06:06.469Z,957.92
2022-09-20T10:07:06.424Z,957.91
2022-09-20T10:08:06.430Z,957.96
2022-09-20T10:09:06.399Z,958.01
2022-09-20T10:10:06.379Z,957.98
2022-09-20T10:11:06.386Z,958.01
2022-09-20T10:12:06.378Z,957.99
2022-09-20T10:13:06.354Z,957.92
2022-09-20T10:14:06.353Z,957.87
2022-09-20T10:15:06.326Z,957.90
2022-09-20T10:16:06.375Z,957.88
2022-09-20T10:17:06.309Z,957.92
2022-09-20T10:18:06.273Z,957.88
2022-09-20T10:19:06.478Z,957.84
2022-09-20T10:20:06.291Z,957.84
2022-09-20T10:21:06.235Z,957.79
2022-09-20T10:22:06.217Z,957.75
2022-09-20T10:23:39.268Z,957.72
2022-09-20T10:24:06.231Z,957.66
2022-09-20T10:25:06.183Z,957.69
2022-09-20T10:26:06.212Z,957.70
2022-09-20T10:27:06.172Z,957.72
2022-09-20T10:28:06.147Z,957.78
2022-09-20T10:29:06.127Z,957.74
2022-09-20T10:30:06.113Z,957.79
2022-09-20T10:31:06.219Z,957.84
2022-09-20T10:32:06.136Z,957.84
2022-09-20T10:33:06.077Z,957.85
2022-09-20T10:34:06.302Z,957.89
2022-09-20T10:35:06.057Z,957.90
2022-09-20T10:36:06.058Z,957.85
2022-09-20T10:37:06.030Z,957.83
2022-09-20T10:38:06.041Z,957.85
2022-09-20T10:39:06.058Z,957.83
2022-09-20T10:40:06.077Z,957.87
2022-09-20T10:41:05.976Z,957.86
2022-09-20T10:42:05.949Z,957.89
2022-09-20T10:43:05.940Z,957.90
2022-09-20T10:44:06.035Z,957.89
2022-09-20T10:45:05.947Z,957.91
2022-09-20T10:46:30.944Z,957.92
2022-09-20T10:47:05.944Z,957.91
2022-09-20T10:48:05.869Z,957.91
2022-09-20T10:49:06.039Z,957.93
2022-09-20T10:50:05.868Z,957.90
2022-09-20T10:51:05.853Z,957.98
2022-09-20T10:52:05.823Z,957.94
2022-09-20T10:53:05.804Z,957.96
2022-09-20T10:54:05.792Z,957.95
2022-09-20T10:55:05.813Z,957.94
2022-09-20T10:56:05.768Z,957.99
2022-09-20T10:57:05.761Z,958.04
2022-09-20T10:58:05.739Z,958.02
2022-09-20T10:59:05.760Z,957.95
2022-09-20T11:00:05.742Z,957.91
2022-09-20T11:01:05.771Z,957.82
2022-09-20T11:02:05.772Z,957.79
2022-09-20T11:03:05.665Z,957.79
2022-09-20T11:04:05.787Z,957.79
2022-09-20T11:05:05.700Z,957.80
2022-09-20T11:06:05.632Z,957.79
2022-09-20T11:07:05.656Z,957.81
2022-09-20T11:08:05.598Z,957.87
2022-09-20T11:09:05.598Z,957.78
2022-09-20T11:10:05.568Z,957.80
2022-09-20T11:11:05.575Z,957.82
2022-09-20T11:12:05.569Z,957.79
2022-09-20T11:13:05.552Z,957.73
2022-09-20T11:14:05.562Z,957.73
2022-09-20T11:15:05.514Z,957.66
2022-09-20T11:16:05.569Z,957.69
2022-09-20T11:17:05.489Z,957.66
2022-09-20T11:18:05.466Z,957.68
2022-09-20T11:19:05.556Z,957.73
2022-09-20T11:20:07.691Z,957.65
2022-09-20T11:21:05.435Z,957.62
2022-09-20T11:22:05.431Z,957.66
2022-09-20T11:23:05.449Z,957.66
2022-09-20T11:24:05.395Z,957.70
2022-09-20T11:25:05.379Z,957.72
2022-09-20T11:26:05.411Z,957.68
2022-09-20T11:27:05.379Z,957.74
2022-09-20T11:28:05.344Z,957.67
2022-09-20T11:29:05.354Z,957.74
2022-09-20T11:30:05.311Z,957.71
2022-09-20T11:31:05.312Z,957.72
2022-09-20T11:32:05.368Z,957.72
2022-09-20T11:33:05.292Z,957.76
2022-09-20T11:34:05.297Z,957.79
2022-09-20T11:35:05.252Z,957.80
2022-09-20T11:36:05.252Z,957.82
2022-09-20T11:37:05.227Z,957.85
2022-09-20T11:38:05.231Z,957.85
2022-09-20T11:39:05.386Z,957.89
2022-09-20T11:40:05.263Z,957.89
2022-09-20T11:41:05.175Z,957.86
2022-09-20T11:42:05.174Z,957.90
2022-09-20T11:43:05.161Z,957.88
2022-09-20T11:44:05.128Z,957.91
2022-09-20T11:45:05.121Z,957.82
2022-09-20T11:46:05.139Z,957.90
2022-09-20T11:47:05.087Z,957.87
2022-09-20T11:48:05.059Z,957.86
2022-09-20T11:49:05.088Z,957.84
2022-09-20T11:50:05.038Z,957.85
2022-09-20T11:51:05.032Z,957.82
2022-09-20T11:52:05.070Z,957.83
2022-09-20T11:53:05.007Z,957.80
2022-09-20T11:54:05.107Z,957.77
2022-09-20T11:55:04.972Z,957.75
2022-09-20T11:56:04.964Z,957.75
2022-09-20T11:57:04.982Z,957.73
2022-09-20T11:58:04.928Z,957.77
2022-09-20T11:59:04.922Z,957.78
2022-09-20T12:00:04.910Z,957.74
2022-09-20T12:01:04.932Z,957.78
2022-09-20T12:02:05.013Z,957.79
2022-09-20T12:03:05.023Z,957.79
2022-09-20T12:04:28.290Z,957.81
2022-09-20T12:05:04.881Z,957.76
2022-09-20T12:06:04.886Z,957.73
2022-09-20T12:07:09.645Z,957.69
2022-09-20T12:08:04.820Z,957.67
2022-09-20T12:09:04.821Z,957.64
2022-09-20T12:10:04.806Z,957.59
2022-09-20T12:11:04.763Z,957.55
2022-09-20T12:12:04.781Z,957.53
2022-09-20T12:13:04.739Z,957.51
2022-09-20T12:14:04.750Z,957.47
2022-09-20T12:15:04.710Z,957.49
2022-09-20T12:16:04.825Z,957.49
2022-09-20T12:17:04.697Z,957.49
2022-09-20T12:18:09.049Z,957.51
2022-09-20T12:19:04.745Z,957.51
2022-09-20T12:20:04.683Z,957.56
2022-09-20T12:21:04.628Z,957.55
2022-09-20T12:22:04.638Z,957.55
2022-09-20T12:23:04.638Z,957.50
2022-09-20T12:24:04.587Z,957.56
2022-09-20T12:25:04.583Z,957.53
2022-09-20T12:26:04.581Z,957.54
2022-09-20T12:27:04.605Z,957.52
2022-09-20T12:28:04.532Z,957.51
2022-09-20T12:29:04.546Z,957.45